Time;durP1;ratioP1;P1;durP2;ratioP2;P2;SDS_P1;SDS_P2;PMS_P1;PMS_P2;Temp;Humidity;BMP_temperature;BMP_pressure;BME280_temperature;BME280_humidity;BME280_pressure;Samples;Min_cycle;Max_cycle;Signal;HPM_P1;HPM_P2
2021/04/04 00:01:26;;;;;;;6.50;2.38;;;17.80;96.00;;;;;;5071177;28;20028;-62
2021/04/04 00:03:52;;;;;;;6.82;2.60;;;17.80;96.10;;;;;;5071198;28;20078;-60
2021/04/04 00:06:17;;;;;;;6.78;2.30;;;17.80;96.10;;;;;;5071418;28;20445;-58
2021/04/04 00:08:43;;;;;;;7.45;2.30;;;17.70;96.20;;;;;;5071174;28;20389;-60
2021/04/04 00:11:09;;;;;;;6.72;2.40;;;17.70;96.30;;;;;;5070100;28;20041;-58
2021/04/04 00:13:35;;;;;;;7.85;2.20;;;17.70;96.30;;;;;;5071087;28;20043;-61
2021/04/04 00:16:01;;;;;;;7.63;2.13;;;17.70;96.30;;;;;;5071091;28;20032;-59
2021/04/04 00:18:26;;;;;;;7.88;2.20;;;17.70;96.40;;;;;;5071756;28;20032;-66
2021/04/04 00:20:52;;;;;;;8.70;2.30;;;17.70;96.70;;;;;;5074856;28;20060;-59
2021/04/04 00:23:18;;;;;;;7.57;2.20;;;17.60;96.60;;;;;;5074957;28;20460;-60
2021/04/04 00:25:43;;;;;;;6.82;2.15;;;17.70;96.60;;;;;;5070477;28;20100;-59
2021/04/04 00:28:09;;;;;;;9.30;2.63;;;17.70;96.80;;;;;;5074110;28;20021;-63
2021/04/04 00:30:35;;;;;;;5.32;2.20;;;17.70;97.10;;;;;;5074116;28;20029;-63
2021/04/04 00:33:00;;;;;;;9.18;2.80;;;17.70;97.20;;;;;;5073966;28;20055;-58
2021/04/04 00:35:26;;;;;;;4.90;2.20;;;17.70;97.00;;;;;;5074921;28;20071;-61
2021/04/04 00:37:53;;;;;;;8.10;2.35;;;17.60;97.50;;;;;;5074792;28;20464;-60
2021/04/04 00:40:24;;;;;;;9.48;2.55;;;17.60;97.10;;;;;;5073417;28;20115;-59
2021/04/04 00:42:50;;;;;;;6.68;2.20;;;17.60;97.10;;;;;;5074441;28;20021;-62
2021/04/04 00:45:18;;;;;;;8.18;2.10;;;17.60;97.10;;;;;;5074530;28;20086;-58
2021/04/04 00:47:45;;;;;;;7.05;2.25;;;17.60;97.10;;;;;;5074251;28;20024;-60
2021/04/04 00:50:11;;;;;;;5.88;2.20;;;17.50;97.10;;;;;;5074428;28;20037;-60
2021/04/04 00:52:39;;;;;;;6.32;2.40;;;17.60;97.10;;;;;;5074192;28;20025;-59
2021/04/04 00:55:07;;;;;;;6.30;2.33;;;17.50;96.90;;;;;;5073094;28;20021;-66
2021/04/04 00:57:33;;;;;;;7.97;2.50;;;17.50;97.10;;;;;;5063633;28;20039;-63
2021/04/04 01:00:01;;;;;;;7.45;2.20;;;17.50;97.00;;;;;;5062582;28;20040;-61
2021/04/04 01:02:27;;;;;;;5.72;2.38;;;17.50;97.40;;;;;;5073666;28;20108;-62
2021/04/04 01:04:54;;;;;;;7.15;1.98;;;17.40;97.30;;;;;;5073260;28;20436;-59
2021/04/04 01:07:20;;;;;;;7.90;2.38;;;17.40;97.30;;;;;;5074022;28;20024;-63
2021/04/04 01:09:46;;;;;;;7.70;2.10;;;17.40;97.40;;;;;;5073958;28;20025;-63
2021/04/04 01:12:39;;;;;;;5.88;2.40;;;17.40;97.30;;;;;;5073813;28;20524;-61
2021/04/04 01:15:18;;;;;;;6.25;2.08;;;17.40;97.10;;;;;;5074136;28;20384;-59
2021/04/04 01:17:47;;;;;;;6.10;2.15;;;17.40;97.50;;;;;;5073688;28;20036;-64
2021/04/04 01:20:26;;;;;;;6.75;1.90;;;17.40;97.20;;;;;;5054816;28;20025;-59
2021/04/04 01:22:58;;;;;;;7.82;2.38;;;17.40;97.40;;;;;;5070105;28;20381;-62
2021/04/04 01:25:26;;;;;;;6.38;2.13;;;17.40;97.30;;;;;;5073155;28;20131;-64
2021/04/04 01:27:58;;;;;;;5.80;1.58;;;17.30;97.40;;;;;;5072656;28;20070;-65
2021/04/04 01:30:31;;;;;;;5.88;2.20;;;17.30;97.30;;;;;;5061751;28;20043;-61
2021/04/04 01:32:58;;;;;;;4.88;1.65;;;17.30;97.40;;;;;;5073599;28;20376;-64
2021/04/04 01:35:27;;;;;;;4.80;1.83;;;17.30;97.70;;;;;;5073637;28;20029;-61
2021/04/04 01:37:56;;;;;;;6.80;2.30;;;17.30;97.60;;;;;;5073470;28;20024;-59
2021/04/04 01:40:24;;;;;;;6.68;2.05;;;17.30;97.90;;;;;;5073618;28;20476;-58
2021/04/04 01:42:53;;;;;;;6.28;2.47;;;17.30;97.60;;;;;;5073201;28;20058;-61
2021/04/04 01:45:21;;;;;;;4.97;1.92;;;17.30;97.60;;;;;;5072425;28;20083;-60
2021/04/04 01:47:47;;;;;;;5.75;2.25;;;17.20;97.60;;;;;;5073474;28;20073;-63
2021/04/04 01:50:14;;;;;;;6.85;2.10;;;17.20;97.90;;;;;;5073290;28;20028;-59
2021/04/04 01:52:40;;;;;;;5.13;2.20;;;17.20;97.70;;;;;;5072903;28;20020;-61
2021/04/04 01:55:08;;;;;;;6.88;1.95;;;17.20;97.70;;;;;;5069759;28;20032;-64
2021/04/04 01:57:34;;;;;;;5.18;1.98;;;17.20;97.80;;;;;;5072508;28;20480;-63
2021/04/04 02:00:06;;;;;;;7.32;2.10;;;17.20;97.60;;;;;;5072936;28;20027;-62
2021/04/04 02:02:33;;;;;;;6.13;1.88;;;17.20;97.70;;;;;;5072522;28;20024;-59
2021/04/04 02:05:00;;;;;;;5.30;1.88;;;17.20;98.20;;;;;;5072992;28;20114;-62
2021/04/04 02:07:26;;;;;;;4.72;2.00;;;17.10;97.80;;;;;;5072322;28;20055;-63
2021/04/04 02:09:53;;;;;;;6.18;2.05;;;17.10;98.00;;;;;;5072921;28;20028;-63
2021/04/04 02:12:19;;;;;;;6.47;1.92;;;17.10;97.70;;;;;;5072581;28;20078;-65
2021/04/04 02:14:47;;;;;;;5.13;2.05;;;17.10;98.10;;;;;;5072602;28;20035;-59
2021/04/04 02:17:15;;;;;;;7.15;2.28;;;17.10;98.80;;;;;;5072812;28;20078;-61
2021/04/04 02:19:40;;;;;;;6.28;2.20;;;17.10;98.50;;;;;;5072649;28;20116;-58
2021/04/04 02:22:06;;;;;;;6.13;2.00;;;17.10;98.40;;;;;;5071744;28;20454;-57
2021/04/04 02:24:33;;;;;;;3.92;1.90;;;17.10;98.10;;;;;;5072820;28;20396;-60
2021/04/04 02:26:59;;;;;;;3.95;2.00;;;17.00;97.90;;;;;;5072522;28;20025;-58
2021/04/04 02:29:25;;;;;;;5.22;1.92;;;17.00;98.00;;;;;;5071829;28;20695;-58
2021/04/04 02:32:00;;;;;;;5.72;2.10;;;17.00;97.90;;;;;;5070698;28;20029;-58
2021/04/04 02:34:34;;;;;;;5.22;1.88;;;17.00;97.90;;;;;;5068948;28;20024;-63
2021/04/04 02:37:01;;;;;;;5.63;2.10;;;17.00;98.10;;;;;;5072607;28;20025;-61
2021/04/04 02:39:35;;;;;;;3.90;2.03;;;17.00;97.60;;;;;;5072373;28;20038;-60
2021/04/04 02:42:02;;;;;;;5.95;2.22;;;17.00;97.90;;;;;;5072178;28;20547;-61
2021/04/04 02:44:30;;;;;;;5.95;1.67;;;16.90;98.00;;;;;;5072269;28;20068;-59
2021/04/04 02:47:01;;;;;;;5.68;1.98;;;17.00;97.80;;;;;;5092827;28;20336;-60
2021/04/04 02:49:34;;;;;;;5.40;2.10;;;17.00;97.90;;;;;;5058248;28;20032;-60
2021/04/04 02:52:06;;;;;;;6.20;2.10;;;16.90;97.80;;;;;;5071778;28;20025;-58
2021/04/04 02:54:35;;;;;;;7.65;2.25;;;16.90;97.80;;;;;;5072124;28;20024;-58
2021/04/04 02:57:01;;;;;;;5.28;1.98;;;16.90;97.90;;;;;;5071507;28;20536;-58
2021/04/04 02:59:45;;;;;;;5.82;2.30;;;16.90;97.70;;;;;;5071395;28;20488;-58
2021/04/04 03:02:15;;;;;;;7.68;2.35;;;16.90;97.80;;;;;;5084417;28;20028;-58
2021/04/04 03:04:43;;;;;;;5.03;2.10;;;16.90;97.90;;;;;;5071775;28;20037;-58
2021/04/04 03:07:14;;;;;;;5.28;2.25;;;16.90;98.20;;;;;;5071952;28;20397;-58
2021/04/04 03:09:43;;;;;;;3.90;1.73;;;16.80;98.00;;;;;;5055139;28;20053;-66
2021/04/04 03:12:10;;;;;;;5.75;2.20;;;16.90;98.00;;;;;;5065812;28;20036;-58
2021/04/04 03:14:36;;;;;;;5.43;2.20;;;16.80;98.10;;;;;;5070935;28;20021;-61
2021/04/04 03:17:04;;;;;;;4.30;2.25;;;16.80;97.60;;;;;;5072038;28;20452;-60
2021/04/04 03:19:33;;;;;;;5.20;2.03;;;16.80;98.00;;;;;;5071564;28;20077;-60
2021/04/04 03:21:59;;;;;;;5.20;2.22;;;16.80;98.00;;;;;;5071683;28;20117;-57
2021/04/04 03:24:26;;;;;;;6.25;2.08;;;16.80;97.90;;;;;;5071771;28;20024;-58
2021/04/04 03:26:53;;;;;;;4.93;2.03;;;16.80;97.90;;;;;;5070883;28;20039;-60
2021/04/04 03:29:20;;;;;;;5.72;2.05;;;16.80;98.30;;;;;;5071161;28;20519;-58
2021/04/04 03:31:46;;;;;;;6.43;2.08;;;16.70;98.20;;;;;;5071415;28;20115;-60
2021/04/04 03:34:12;;;;;;;4.20;1.80;;;16.70;98.10;;;;;;5071236;28;20120;-57
2021/04/04 03:36:38;;;;;;;7.15;2.40;;;16.70;98.00;;;;;;5066908;28;20025;-63
2021/04/04 03:39:05;;;;;;;5.03;1.75;;;16.70;98.10;;;;;;5051897;28;20488;-59
2021/04/04 03:41:34;;;;;;;4.32;2.17;;;16.70;97.90;;;;;;5061871;28;20477;-58
2021/04/04 03:44:00;;;;;;;7.25;2.33;;;16.70;98.00;;;;;;5071292;28;20047;-59
2021/04/04 03:46:30;;;;;;;4.82;1.98;;;16.70;98.00;;;;;;5071311;28;20052;-59
2021/04/04 03:48:56;;;;;;;5.80;2.15;;;16.70;98.10;;;;;;5071310;28;20017;-58
2021/04/04 03:51:24;;;;;;;3.70;1.55;;;16.70;98.00;;;;;;5070689;28;20052;-59
2021/04/04 03:53:51;;;;;;;6.55;2.38;;;16.70;97.90;;;;;;5072262;28;20063;-59
2021/04/04 03:56:29;;;;;;;4.80;2.05;;;16.70;98.10;;;;;;5075087;28;20074;-59
2021/04/04 03:58:57;;;;;;;4.22;2.13;;;16.60;97.90;;;;;;5075523;28;20025;-59
2021/04/04 04:01:25;;;;;;;5.13;1.95;;;16.60;98.00;;;;;;5066572;28;20028;-63
2021/04/04 04:03:53;;;;;;;4.60;2.20;;;16.60;98.00;;;;;;5068032;28;20041;-60
2021/04/04 04:06:19;;;;;;;5.60;1.95;;;16.60;97.90;;;;;;5055406;28;20036;-58
2021/04/04 04:08:46;;;;;;;5.60;2.13;;;16.60;98.30;;;;;;5055248;28;20100;-59
2021/04/04 04:11:14;;;;;;;5.13;2.15;;;16.60;98.30;;;;;;5072411;28;20025;-58
2021/04/04 04:13:42;;;;;;;5.72;2.15;;;16.60;98.60;;;;;;5075106;28;20020;-59
2021/04/04 04:16:10;;;;;;;5.50;2.10;;;16.60;97.80;;;;;;5075446;28;20017;-58
2021/04/04 04:18:42;;;;;;;6.30;2.22;;;16.60;98.10;;;;;;5107378;28;20046;-64
2021/04/04 04:21:10;;;;;;;3.63;1.80;;;16.60;98.10;;;;;;5073669;28;20111;-63
2021/04/04 04:23:37;;;;;;;6.68;2.22;;;16.60;98.20;;;;;;5074834;28;20036;-61
2021/04/04 04:26:03;;;;;;;5.43;2.03;;;16.60;98.10;;;;;;5074452;28;20085;-60
2021/04/04 04:28:29;;;;;;;5.00;2.20;;;16.60;98.00;;;;;;5055480;28;20403;-58
2021/04/04 04:30:55;;;;;;;4.13;2.25;;;16.60;98.10;;;;;;5069202;28;20477;-58
2021/04/04 04:33:22;;;;;;;7.85;2.25;;;16.60;98.00;;;;;;5074417;28;20025;-60
2021/04/04 04:35:50;;;;;;;4.40;2.10;;;16.60;98.10;;;;;;5074705;28;20032;-59
2021/04/04 04:38:18;;;;;;;5.15;2.05;;;16.60;98.10;;;;;;5074758;28;20024;-61
2021/04/04 04:40:45;;;;;;;5.95;2.28;;;16.60;98.00;;;;;;5073947;28;20032;-62
2021/04/04 04:43:14;;;;;;;4.63;2.20;;;16.50;98.00;;;;;;5074832;28;20025;-58
2021/04/04 04:45:41;;;;;;;7.13;2.13;;;16.60;98.00;;;;;;5074729;28;20036;-58
2021/04/04 04:48:09;;;;;;;6.20;2.10;;;16.60;97.90;;;;;;5073672;28;20473;-60
2021/04/04 04:50:36;;;;;;;7.00;2.10;;;16.50;98.50;;;;;;5062895;28;20087;-59
2021/04/04 04:53:02;;;;;;;5.07;2.22;;;16.50;98.10;;;;;;5054392;28;20105;-58
2021/04/04 04:55:28;;;;;;;4.90;2.00;;;16.50;98.00;;;;;;5054732;28;20397;-58
2021/04/04 04:57:55;;;;;;;5.18;2.10;;;16.60;98.10;;;;;;5061091;28;20460;-59
2021/04/04 05:00:22;;;;;;;3.78;1.88;;;16.50;98.10;;;;;;5073258;28;20035;-60
2021/04/04 05:02:49;;;;;;;6.05;2.47;;;16.50;98.00;;;;;;5073833;28;20028;-59
2021/04/04 05:05:16;;;;;;;4.32;1.98;;;16.50;97.60;;;;;;5073031;28;20106;-58
2021/04/04 05:07:45;;;;;;;5.22;1.98;;;16.50;97.90;;;;;;5074367;28;20025;-58
2021/04/04 05:10:12;;;;;;;4.55;1.85;;;16.50;98.10;;;;;;5072295;28;20039;-59
2021/04/04 05:12:45;;;;;;;4.57;2.05;;;16.50;97.70;;;;;;5074154;28;20021;-58
2021/04/04 05:15:11;;;;;;;5.03;2.20;;;16.50;98.00;;;;;;5073299;28;20017;-59
2021/04/04 05:17:37;;;;;;;5.07;2.10;;;16.50;97.90;;;;;;5073763;28;20118;-60
2021/04/04 05:20:08;;;;;;;4.72;2.20;;;16.50;98.10;;;;;;5073669;28;20028;-60
2021/04/04 05:22:35;;;;;;;4.88;1.85;;;16.50;98.00;;;;;;5073865;28;20068;-59
2021/04/04 05:25:02;;;;;;;5.50;2.10;;;16.50;98.10;;;;;;5073763;28;20480;-59
2021/04/04 05:27:28;;;;;;;4.20;2.00;;;16.50;97.70;;;;;;5073356;28;20051;-58
2021/04/04 05:29:58;;;;;;;5.15;2.25;;;16.50;97.90;;;;;;5072870;28;20480;-58
2021/04/04 05:32:23;;;;;;;4.22;1.92;;;16.50;98.00;;;;;;5073722;28;20056;-58
2021/04/04 05:34:49;;;;;;;3.15;1.90;;;16.50;98.00;;;;;;5073813;28;20209;-61
2021/04/04 05:37:15;;;;;;;6.78;2.40;;;16.50;98.00;;;;;;5073464;28;20032;-58
2021/04/04 05:39:40;;;;;;;3.28;1.92;;;16.50;98.10;;;;;;5073533;28;20163;-60
2021/04/04 05:42:08;;;;;;;4.80;2.20;;;16.50;98.20;;;;;;5073216;28;20373;-62
2021/04/04 05:44:44;;;;;;;3.85;2.03;;;16.50;98.10;;;;;;5072841;28;20093;-59
2021/04/04 05:47:47;;;;;;;4.90;1.85;;;16.50;98.00;;;;;;5058484;28;20055;-58
2021/04/04 05:50:27;;;;;;;7.32;2.28;;;16.50;98.20;;;;;;5051188;28;20040;-62
2021/04/04 05:53:17;;;;;;;5.50;2.25;;;16.50;98.10;;;;;;5072282;28;20384;-61
2021/04/04 05:56:20;;;;;;;4.68;2.20;;;16.50;98.20;;;;;;5053743;28;20456;-63
2021/04/04 05:58:51;;;;;;;5.13;2.08;;;16.50;98.30;;;;;;5070373;28;20020;-59
2021/04/04 06:01:29;;;;;;;3.38;2.25;;;16.50;98.30;;;;;;5069671;28;20067;-60
2021/04/04 06:04:19;;;;;;;5.72;2.40;;;16.50;98.00;;;;;;5055555;28;20032;-59
2021/04/04 06:07:23;;;;;;;6.78;2.00;;;16.50;98.30;;;;;;5059476;28;20032;-58
2021/04/04 06:10:08;;;;;;;5.85;1.85;;;16.50;98.40;;;;;;5072366;28;20075;-60
2021/04/04 06:12:57;;;;;;;4.38;1.90;;;16.50;98.00;;;;;;5072664;28;20024;-61
2021/04/04 06:15:25;;;;;;;6.72;2.20;;;16.50;98.20;;;;;;5072850;28;20484;-59
2021/04/04 06:18:13;;;;;;;4.60;2.20;;;16.60;98.30;;;;;;5072439;28;20154;-58
2021/04/04 06:20:47;;;;;;;6.63;2.00;;;16.60;98.20;;;;;;5061203;28;20056;-61
2021/04/04 06:23:13;;;;;;;5.35;1.77;;;16.50;98.80;;;;;;5070210;28;20444;-60
2021/04/04 06:26:20;;;;;;;6.60;2.33;;;16.50;95.80;;;;;;5052575;28;20049;-58
2021/04/04 06:29:12;;;;;;;6.72;2.17;;;16.40;93.80;;;;;;5047063;28;20041;-63
2021/04/04 06:32:01;;;;;;;15.00;4.22;;;16.30;92.60;;;;;;5052387;28;20052;-62
2021/04/04 06:34:36;;;;;;;15.27;5.30;;;16.00;91.80;;;;;;5052690;28;20511;-58
2021/04/04 06:37:38;;;;;;;13.80;5.07;;;15.80;91.90;;;;;;5060596;28;20028;-58
2021/04/04 06:40:05;;;;;;;13.65;5.53;;;15.70;91.70;;;;;;5072584;28;20048;-58
2021/04/04 06:42:49;;;;;;;11.38;5.20;;;15.60;91.70;;;;;;5071872;28;20016;-57
2021/04/04 06:45:33;;;;;;;13.18;5.50;;;15.50;91.60;;;;;;5071786;28;20036;-58
2021/04/04 06:48:18;;;;;;;17.85;6.13;;;15.40;91.50;;;;;;5070859;28;20104;-64
2021/04/04 06:50:52;;;;;;;16.65;5.80;;;15.50;91.80;;;;;;5052530;28;20037;-60
2021/04/04 06:53:17;;;;;;;18.83;6.07;;;15.40;91.80;;;;;;5069821;28;20032;-60
2021/04/04 06:56:21;;;;;;;21.67;6.38;;;15.40;91.60;;;;;;5088076;28;20029;-58
2021/04/04 06:59:03;;;;;;;20.50;6.18;;;15.20;91.50;;;;;;5072140;28;20048;-61
2021/04/04 07:01:57;;;;;;;18.90;6.00;;;15.10;91.40;;;;;;5071941;28;20024;-63
2021/04/04 07:04:50;;;;;;;16.13;6.40;;;15.10;91.30;;;;;;5071978;28;20033;-60
2021/04/04 07:07:21;;;;;;;17.30;5.70;;;15.00;91.00;;;;;;5064575;28;20036;-67
2021/04/04 07:10:08;;;;;;;15.15;5.75;;;14.90;91.00;;;;;;5070930;28;20522;-63
2021/04/04 07:12:58;;;;;;;14.43;5.88;;;14.90;91.10;;;;;;5072109;28;20028;-64
2021/04/04 07:15:45;;;;;;;15.65;6.20;;;14.90;91.00;;;;;;5072194;28;20032;-58
2021/04/04 07:18:27;;;;;;;15.38;6.03;;;14.80;91.00;;;;;;5071927;28;20032;-67
2021/04/04 07:21:09;;;;;;;16.38;5.95;;;14.80;90.90;;;;;;5072032;28;20582;-61
2021/04/04 07:24:08;;;;;;;12.73;4.68;;;14.80;91.00;;;;;;5063369;28;20446;-62
2021/04/04 07:27:01;;;;;;;13.75;5.18;;;14.80;90.80;;;;;;5051861;28;20063;-68
2021/04/04 07:29:51;;;;;;;16.48;5.80;;;14.60;90.70;;;;;;5061226;28;20450;-68
2021/04/04 07:32:30;;;;;;;13.75;5.38;;;14.50;90.70;;;;;;5072198;28;20020;-69
2021/04/04 07:35:12;;;;;;;14.05;5.18;;;14.40;90.70;;;;;;5066887;28;20020;-70
2021/04/04 07:37:43;;;;;;;11.20;4.38;;;14.20;90.90;;;;;;5070815;28;20070;-60
2021/04/04 07:40:22;;;;;;;11.48;3.97;;;14.50;91.50;;;;;;5071793;28;20025;-58
2021/04/04 07:43:09;;;;;;;10.65;4.30;;;14.70;91.50;;;;;;5073414;28;20050;-58
2021/04/04 07:45:46;;;;;;;10.65;3.80;;;14.90;91.50;;;;;;5069575;28;20033;-58
2021/04/04 07:48:44;;;;;;;9.40;3.53;;;15.00;91.70;;;;;;5068258;28;20048;-60
2021/04/04 07:51:18;;;;;;;9.77;3.60;;;15.10;91.40;;;;;;5069649;28;20124;-60
2021/04/04 07:54:08;;;;;;;8.20;3.30;;;15.30;91.30;;;;;;5060939;28;20488;-61
2021/04/04 07:56:43;;;;;;;7.63;3.00;;;15.60;91.20;;;;;;5066961;28;20045;-60
2021/04/04 07:59:08;;;;;;;5.68;2.63;;;15.60;91.20;;;;;;5051443;28;20029;-59
2021/04/04 08:02:09;;;;;;;8.32;3.22;;;15.70;91.30;;;;;;5058156;28;20024;-60
2021/04/04 08:04:38;;;;;;;5.70;2.65;;;15.90;91.20;;;;;;5064356;28;20049;-58
2021/04/04 08:07:12;;;;;;;5.38;2.47;;;15.90;91.20;;;;;;5070745;28;20025;-59
2021/04/04 08:09:57;;;;;;;5.72;2.60;;;16.00;91.30;;;;;;5054722;28;20108;-59
2021/04/04 08:12:54;;;;;;;5.20;2.53;;;16.10;91.40;;;;;;5051552;28;20025;-63
2021/04/04 08:15:24;;;;;;;7.88;2.50;;;16.20;91.40;;;;;;5051856;28;20094;-58
2021/04/04 08:17:49;;;;;;;8.70;2.58;;;16.30;91.50;;;;;;5064826;28;20050;-58
2021/04/04 08:20:23;;;;;;;6.07;2.53;;;16.40;91.50;;;;;;5069358;28;20469;-60
2021/04/04 08:23:14;;;;;;;7.22;2.53;;;16.40;91.60;;;;;;5066523;28;20032;-61
2021/04/04 08:26:01;;;;;;;6.03;2.17;;;16.40;91.70;;;;;;5070682;28;20098;-61
2021/04/04 08:28:37;;;;;;;11.13;2.40;;;16.50;92.00;;;;;;5071139;28;20028;-61
2021/04/04 08:31:22;;;;;;;9.05;2.40;;;16.60;92.50;;;;;;5071282;28;20013;-63
2021/04/04 08:33:54;;;;;;;5.85;2.20;;;16.60;92.50;;;;;;5071502;28;20035;-61
2021/04/04 08:36:24;;;;;;;6.55;2.50;;;16.70;92.70;;;;;;5086103;28;20024;-62
2021/04/04 08:38:51;;;;;;;7.32;2.30;;;16.80;92.80;;;;;;5072741;28;20024;-61
2021/04/04 08:41:19;;;;;;;9.50;2.88;;;16.80;92.80;;;;;;5074079;28;20392;-60
2021/04/04 08:44:09;;;;;;;8.30;2.55;;;16.90;92.80;;;;;;5074091;28;20029;-63
2021/04/04 08:46:46;;;;;;;4.97;2.00;;;16.90;93.10;;;;;;5072063;28;20032;-62
2021/04/04 08:49:14;;;;;;;5.55;2.22;;;17.00;92.80;;;;;;5054691;28;20035;-61
2021/04/04 08:51:44;;;;;;;8.85;2.35;;;17.00;92.80;;;;;;5071583;28;20029;-61
2021/04/04 08:54:18;;;;;;;7.18;2.30;;;17.10;92.70;;;;;;5073207;28;20067;-62
2021/04/04 08:56:46;;;;;;;6.30;2.03;;;17.20;92.60;;;;;;5074673;28;20052;-60
2021/04/04 08:59:14;;;;;;;6.05;2.30;;;17.20;92.50;;;;;;5073630;28;20038;-63
2021/04/04 09:01:46;;;;;;;8.85;2.38;;;17.30;92.40;;;;;;5065817;28;20024;-60
2021/04/04 09:04:11;;;;;;;5.47;1.98;;;17.40;92.30;;;;;;5054373;28;20021;-61
2021/04/04 09:06:41;;;;;;;8.63;1.98;;;17.40;92.10;;;;;;5054333;28;20037;-60
2021/04/04 09:09:22;;;;;;;6.07;2.20;;;17.50;92.00;;;;;;5054253;28;20488;-63
2021/04/04 09:11:52;;;;;;;5.28;1.83;;;17.60;91.90;;;;;;5054333;28;20123;-62
2021/04/04 09:14:22;;;;;;;5.32;2.20;;;17.60;91.80;;;;;;5057947;28;20451;-62
2021/04/04 09:16:55;;;;;;;4.78;1.90;;;17.70;91.70;;;;;;5072873;28;20035;-60
2021/04/04 09:19:35;;;;;;;7.22;1.88;;;17.80;91.50;;;;;;5068167;28;20074;-60
2021/04/04 09:22:20;;;;;;;5.25;1.90;;;17.80;91.40;;;;;;5053898;28;20037;-62
2021/04/04 09:24:52;;;;;;;5.38;1.70;;;17.90;91.30;;;;;;5053900;28;20359;-62
2021/04/04 09:27:20;;;;;;;6.30;1.83;;;17.90;91.50;;;;;;5053947;28;20061;-60
2021/04/04 09:29:49;;;;;;;8.38;2.25;;;18.00;91.30;;;;;;5053736;28;20021;-61
2021/04/04 09:32:25;;;;;;;6.07;1.75;;;18.00;91.10;;;;;;5062740;28;20016;-62
2021/04/04 09:34:53;;;;;;;5.50;1.98;;;18.10;91.00;;;;;;5073799;28;20384;-65
2021/04/04 09:37:24;;;;;;;6.57;2.13;;;18.20;90.90;;;;;;5073804;28;20028;-61
2021/04/04 09:39:51;;;;;;;7.47;2.03;;;18.20;90.80;;;;;;5070848;28;20033;-61
2021/04/04 09:42:17;;;;;;;7.88;1.90;;;18.30;90.80;;;;;;5068473;28;20166;-60
2021/04/04 09:44:45;;;;;;;9.93;2.20;;;18.40;91.10;;;;;;5067974;28;20032;-62
2021/04/04 09:47:11;;;;;;;9.98;2.08;;;18.50;91.10;;;;;;5083771;28;20380;-67
2021/04/04 09:49:48;;;;;;;9.73;2.33;;;18.60;91.20;;;;;;5074001;28;20024;-71
2021/04/04 09:52:39;;;;;;;8.65;2.22;;;18.70;91.50;;;;;;5070059;28;20591;-62
2021/04/04 09:55:10;;;;;;;11.48;2.10;;;18.90;91.60;;;;;;5065962;28;20040;-64
2021/04/04 09:57:43;;;;;;;7.32;2.40;;;19.00;91.00;;;;;;5080254;28;20089;-65
2021/04/04 10:00:26;;;;;;;5.97;1.95;;;19.10;91.00;;;;;;5071671;28;20035;-69
2021/04/04 10:02:55;;;;;;;11.45;2.30;;;19.20;90.60;;;;;;5072347;28;20495;-67
2021/04/04 10:05:41;;;;;;;12.10;2.45;;;19.30;90.70;;;;;;5072103;28;20125;-64
2021/04/04 10:08:09;;;;;;;10.05;2.42;;;19.40;91.00;;;;;;5071411;28;20024;-65
2021/04/04 10:10:36;;;;;;;9.50;2.00;;;19.50;90.50;;;;;;5071540;28;20039;-67
2021/04/04 10:13:03;;;;;;;9.52;2.00;;;19.50;90.30;;;;;;5056040;28;20021;-70
2021/04/04 10:15:43;;;;;;;5.90;2.10;;;19.60;90.30;;;;;;5071944;28;20024;-64
2021/04/04 10:18:09;;;;;;;5.50;2.00;;;19.70;90.40;;;;;;5071121;28;20123;-68
2021/04/04 10:20:40;;;;;;;10.80;2.33;;;19.70;89.90;;;;;;5071100;28;20100;-62
2021/04/04 10:23:07;;;;;;;8.07;2.17;;;19.80;90.00;;;;;;5072267;28;20078;-68
2021/04/04 10:25:34;;;;;;;7.13;2.13;;;19.90;90.00;;;;;;5071581;28;20468;-65
2021/04/04 10:28:08;;;;;;;9.48;2.17;;;19.90;89.50;;;;;;5071841;28;20039;-65
2021/04/04 10:30:36;;;;;;;6.75;1.90;;;20.00;89.70;;;;;;5071714;28;20021;-68
2021/04/04 10:33:21;;;;;;;6.90;1.98;;;20.10;90.00;;;;;;5067062;28;20472;-65
2021/04/04 10:35:47;;;;;;;5.38;1.60;;;20.20;90.00;;;;;;5071571;28;20384;-63
2021/04/04 10:38:21;;;;;;;6.35;1.70;;;20.20;89.10;;;;;;5071684;28;20020;-64
2021/04/04 10:40:50;;;;;;;8.27;1.83;;;20.30;88.90;;;;;;5069959;28;20074;-67
2021/04/04 10:43:18;;;;;;;6.18;1.75;;;20.30;88.90;;;;;;5072686;28;20090;-62
2021/04/04 10:46:03;;;;;;;7.35;1.88;;;20.50;88.80;;;;;;5071524;28;20111;-67
2021/04/04 10:48:31;;;;;;;7.65;1.80;;;20.50;88.60;;;;;;5083336;28;20028;-67
2021/04/04 10:50:57;;;;;;;6.50;1.77;;;20.50;88.70;;;;;;5073593;28;20028;-61
2021/04/04 10:53:23;;;;;;;5.50;1.67;;;20.60;88.80;;;;;;5073749;28;20038;-64
2021/04/04 10:55:50;;;;;;;4.43;1.58;;;20.60;88.30;;;;;;5071301;28;20025;-59
2021/04/04 10:58:20;;;;;;;3.92;1.45;;;20.70;89.10;;;;;;5072083;28;20032;-64
2021/04/04 11:00:46;;;;;;;5.20;1.52;;;20.70;88.50;;;;;;5071148;28;20036;-60
2021/04/04 11:03:12;;;;;;;6.47;1.65;;;20.70;88.90;;;;;;5075841;28;20456;-61
2021/04/04 11:05:38;;;;;;;6.25;1.60;;;20.80;88.20;;;;;;5091429;28;20051;-63
2021/04/04 11:08:04;;;;;;;8.25;1.65;;;20.80;88.20;;;;;;5080565;28;20033;-62
2021/04/04 11:10:30;;;;;;;5.57;1.30;;;20.80;87.70;;;;;;5065666;28;20112;-63
2021/04/04 11:12:59;;;;;;;5.65;1.65;;;20.80;87.40;;;;;;5067005;28;20108;-62
2021/04/04 11:15:28;;;;;;;4.60;1.60;;;20.80;87.40;;;;;;5057277;28;20020;-69
2021/04/04 11:17:55;;;;;;;3.85;1.50;;;20.90;87.40;;;;;;5071099;28;20024;-64
2021/04/04 11:20:22;;;;;;;7.10;2.00;;;21.00;88.20;;;;;;5070902;28;20823;-64
2021/04/04 11:22:48;;;;;;;7.07;1.60;;;21.00;88.10;;;;;;5070335;28;20020;-64
2021/04/04 11:25:16;;;;;;;8.23;1.85;;;21.10;89.20;;;;;;5073146;28;20036;-61
2021/04/04 11:27:48;;;;;;;4.75;1.70;;;21.20;89.70;;;;;;5070334;28;20071;-61
2021/04/04 11:30:16;;;;;;;4.07;1.42;;;21.20;90.30;;;;;;5068608;28;20052;-59
2021/04/04 11:32:46;;;;;;;6.63;1.67;;;21.40;90.30;;;;;;5069863;28;20030;-58
2021/04/04 11:35:13;;;;;;;3.83;1.23;;;21.40;90.10;;;;;;5070706;28;20085;-58
2021/04/04 11:37:41;;;;;;;5.10;1.45;;;21.50;90.10;;;;;;5070176;28;20059;-59
2021/04/04 11:40:18;;;;;;;4.32;1.30;;;21.60;90.10;;;;;;5070258;28;20024;-61
2021/04/04 11:42:47;;;;;;;4.63;1.58;;;21.70;90.40;;;;;;5071085;28;20043;-60
2021/04/04 11:45:31;;;;;;;4.78;1.83;;;21.70;90.20;;;;;;5070391;28;20025;-62
2021/04/04 11:48:33;;;;;;;4.63;1.65;;;21.80;90.30;;;;;;5070124;28;20024;-63
2021/04/04 11:51:11;;;;;;;4.43;1.60;;;21.90;90.50;;;;;;5071100;28;20210;-64
2021/04/04 11:53:47;;;;;;;7.82;1.70;;;21.90;90.40;;;;;;5070287;28;20104;-59
2021/04/04 11:56:45;;;;;;;5.60;1.40;;;21.70;90.40;;;;;;5069564;28;20082;-60
2021/04/04 11:59:14;;;;;;;6.68;1.80;;;21.80;90.40;;;;;;5069106;28;20024;-59
2021/04/04 12:01:40;;;;;;;5.03;1.45;;;21.80;90.40;;;;;;5068188;28;20028;-63
2021/04/04 12:04:33;;;;;;;3.53;1.50;;;21.80;90.40;;;;;;5068204;28;20032;-64
2021/04/04 12:07:12;;;;;;;3.85;1.50;;;21.70;90.50;;;;;;5068512;28;20095;-62
2021/04/04 12:09:40;;;;;;;4.97;1.35;;;21.60;90.50;;;;;;5068103;28;20024;-61
2021/04/04 12:12:07;;;;;;;5.43;1.70;;;21.50;90.50;;;;;;5069999;28;20028;-59
2021/04/04 12:14:46;;;;;;;5.28;1.50;;;21.50;90.70;;;;;;5070670;28;20020;-59
2021/04/04 12:17:13;;;;;;;3.60;1.60;;;21.40;90.70;;;;;;5072596;28;20032;-61
2021/04/04 12:19:42;;;;;;;4.55;1.70;;;21.30;90.80;;;;;;5073831;28;20020;-59
2021/04/04 12:22:08;;;;;;;4.00;1.50;;;21.20;90.90;;;;;;5073732;28;20025;-60
2021/04/04 12:24:43;;;;;;;4.05;1.55;;;21.20;90.80;;;;;;5073817;28;20032;-60
2021/04/04 12:27:15;;;;;;;3.60;1.55;;;21.20;90.90;;;;;;5073723;28;20028;-60
2021/04/04 12:29:48;;;;;;;2.80;1.10;;;21.10;90.80;;;;;;5071085;28;20099;-59
2021/04/04 12:32:24;;;;;;;5.88;1.75;;;21.10;90.80;;;;;;5071545;28;20028;-63
2021/04/04 12:34:55;;;;;;;6.07;1.77;;;21.00;90.90;;;;;;5071879;28;20429;-63
2021/04/04 12:37:23;;;;;;;3.75;1.30;;;21.00;90.90;;;;;;5073208;28;20075;-64
2021/04/04 12:39:52;;;;;;;3.88;1.75;;;21.00;91.20;;;;;;5072883;28;20020;-62
2021/04/04 12:42:20;;;;;;;4.43;1.67;;;20.90;91.20;;;;;;5070367;28;20025;-64
2021/04/04 12:44:48;;;;;;;4.22;1.60;;;20.90;91.10;;;;;;5072766;28;20124;-63
2021/04/04 12:47:25;;;;;;;4.00;1.77;;;20.90;91.10;;;;;;5072474;28;20421;-60
2021/04/04 12:50:00;;;;;;;5.25;1.52;;;20.90;91.20;;;;;;5071076;28;20062;-68
2021/04/04 12:52:36;;;;;;;4.50;1.80;;;20.80;91.20;;;;;;5086037;28;20426;-61
2021/04/04 12:55:13;;;;;;;3.20;1.67;;;20.80;91.30;;;;;;5069987;28;20384;-61
2021/04/04 12:57:39;;;;;;;3.13;1.50;;;20.70;91.20;;;;;;5073237;28;20032;-63
2021/04/04 13:00:14;;;;;;;4.45;1.73;;;20.70;91.30;;;;;;5087670;28;20029;-64
2021/04/04 13:02:39;;;;;;;4.47;2.08;;;20.70;91.20;;;;;;5071065;28;20077;-60
2021/04/04 13:05:06;;;;;;;5.40;2.08;;;20.60;91.30;;;;;;5071762;28;20373;-66
2021/04/04 13:07:31;;;;;;;4.22;1.75;;;20.60;91.20;;;;;;5072793;28;20075;-61
2021/04/04 13:09:57;;;;;;;4.25;1.80;;;20.60;91.30;;;;;;5073497;28;20024;-65
2021/04/04 13:12:23;;;;;;;3.47;1.70;;;20.50;91.30;;;;;;5072297;28;20373;-61